createdAt,value
2023-02-18T00:01:52.980Z,97.01
2023-02-18T00:04:21.860Z,96.75
2023-02-18T00:06:52.068Z,96.93
2023-02-18T00:09:22.620Z,96.34
2023-02-18T00:11:51.289Z,96.54
2023-02-18T00:14:20.269Z,97.02
2023-02-18T00:16:49.200Z,96.52
2023-02-18T00:19:21.049Z,96.36
2023-02-18T00:21:51.385Z,95.20
2023-02-18T00:24:20.095Z,95.68
2023-02-18T00:26:53.248Z,95.58
2023-02-18T00:29:22.610Z,94.21
2023-02-18T00:31:51.564Z,94.28
2023-02-18T00:34:20.426Z,93.42
2023-02-18T00:36:49.047Z,93.45
2023-02-18T00:39:19.309Z,93.20
2023-02-18T00:41:48.270Z,92.76
2023-02-18T00:44:17.268Z,92.09
2023-02-18T00:46:49.215Z,91.51
2023-02-18T00:49:18.497Z,91.80
2023-02-18T00:51:47.198Z,90.93
2023-02-18T00:54:16.041Z,90.71
2023-02-18T00:56:46.263Z,90.55
2023-02-18T00:59:15.019Z,90.14
2023-02-18T01:01:43.988Z,89.95
2023-02-18T01:04:13.109Z,89.63
2023-02-18T01:06:42.066Z,89.89
2023-02-18T01:09:11.974Z,89.79
2023-02-18T01:11:40.875Z,88.93
2023-02-18T01:14:11.026Z,89.09
2023-02-18T01:16:40.196Z,88.80
2023-02-18T01:19:10.683Z,88.73
2023-02-18T01:21:40.636Z,88.59
2023-02-18T01:24:10.033Z,88.16
2023-02-18T01:26:38.727Z,88.16
2023-02-18T01:29:07.716Z,88.34
2023-02-18T01:31:38.002Z,88.46
2023-02-18T01:34:06.879Z,87.94
2023-02-18T01:36:35.626Z,88.31
2023-02-18T01:39:06.470Z,87.79
2023-02-18T01:41:35.753Z,87.25
2023-02-18T01:44:17.801Z,87.43
2023-02-18T01:46:49.917Z,87.37
2023-02-18T01:49:22.360Z,87.42
2023-02-18T01:51:55.693Z,87.48
2023-02-18T01:54:30.484Z,87.04
2023-02-18T01:57:04.505Z,87.17
2023-02-18T01:59:38.890Z,86.89
2023-02-18T02:02:14.728Z,86.98
2023-02-18T02:04:44.125Z,86.68
2023-02-18T02:07:13.217Z,86.56
2023-02-18T02:09:43.990Z,86.42
2023-02-18T02:12:30.039Z,86.65
2023-02-18T02:15:21.069Z,86.78
2023-02-18T02:18:06.599Z,86.82
2023-02-18T02:21:04.150Z,86.68
2023-02-18T02:24:05.608Z,86.60
2023-02-18T02:27:08.136Z,86.38
2023-02-18T02:30:03.082Z,86.15
2023-02-18T02:33:04.287Z,86.39
2023-02-18T02:35:39.393Z,86.54
2023-02-18T02:38:14.018Z,86.19
2023-02-18T02:40:51.138Z,86.12
2023-02-18T02:43:29.328Z,85.95
2023-02-18T02:46:04.335Z,85.20
2023-02-18T02:48:44.274Z,85.06
2023-02-18T02:51:20.165Z,85.74
2023-02-18T02:53:49.041Z,85.87
2023-02-18T02:56:19.141Z,85.92
2023-02-18T02:58:59.428Z,85.69
2023-02-18T03:01:43.103Z,86.26
2023-02-18T03:04:32.786Z,86.57
2023-02-18T03:07:34.567Z,87.19
2023-02-18T03:10:27.454Z,87.30
2023-02-18T03:13:05.796Z,87.86
2023-02-18T03:15:41.826Z,87.92
2023-02-18T03:18:19.886Z,88.84
2023-02-18T03:20:56.674Z,89.17
2023-02-18T03:23:31.518Z,89.26
2023-02-18T03:26:01.149Z,90.14
2023-02-18T03:28:32.737Z,90.01
2023-02-18T03:31:11.323Z,90.67
2023-02-18T03:33:46.185Z,90.98
2023-02-18T03:36:15.206Z,91.01
2023-02-18T03:38:56.081Z,91.04
2023-02-18T03:41:25.135Z,92.30
2023-02-18T03:43:55.537Z,92.00
2023-02-18T03:46:24.348Z,92.59
2023-02-18T03:48:53.623Z,92.35
2023-02-18T03:51:23.335Z,93.13
2023-02-18T03:53:53.908Z,92.78
2023-02-18T03:56:23.110Z,93.03
2023-02-18T03:58:52.056Z,92.44
2023-02-18T04:01:20.805Z,93.38
2023-02-18T04:03:49.806Z,93.16
2023-02-18T04:06:18.700Z,93.67
2023-02-18T04:08:47.480Z,93.78
2023-02-18T04:11:18.211Z,93.19
2023-02-18T04:13:47.026Z,93.48
2023-02-18T04:16:16.338Z,93.28
2023-02-18T04:18:45.099Z,93.32
2023-02-18T04:21:13.794Z,93.23
2023-02-18T04:23:42.668Z,92.65
2023-02-18T04:26:11.520Z,92.80
2023-02-18T04:28:41.782Z,93.20
2023-02-18T04:31:11.923Z,93.72
2023-02-18T04:33:40.789Z,93.10
2023-02-18T04:36:10.405Z,92.75
2023-02-18T04:38:39.638Z,93.58
2023-02-18T04:41:08.370Z,93.78
2023-02-18T04:43:37.155Z,93.43
2023-02-18T04:46:07.591Z,93.39
2023-02-18T04:48:36.657Z,93.01
2023-02-18T04:51:06.080Z,93.08
2023-02-18T04:53:34.847Z,93.74
2023-02-18T04:56:03.563Z,94.09
2023-02-18T04:58:32.443Z,94.11
2023-02-18T05:01:02.129Z,94.41
2023-02-18T05:03:33.454Z,93.73
2023-02-18T05:06:02.397Z,94.24
2023-02-18T05:08:31.068Z,94.61
2023-02-18T05:10:59.845Z,94.42
2023-02-18T05:13:28.577Z,93.45
2023-02-18T05:15:57.469Z,93.75
2023-02-18T05:18:26.359Z,94.14
2023-02-18T05:20:57.410Z,94.01
2023-02-18T05:23:26.239Z,93.46
2023-02-18T05:25:56.008Z,93.31
2023-02-18T05:28:24.978Z,93.35
2023-02-18T05:30:53.661Z,93.49
2023-02-18T05:33:22.406Z,93.41
2023-02-18T05:35:51.128Z,93.55
2023-02-18T05:38:21.434Z,93.29
2023-02-18T05:40:50.217Z,92.89
2023-02-18T05:43:19.037Z,93.03
2023-02-18T05:45:47.896Z,93.41
2023-02-18T05:48:16.682Z,92.90
2023-02-18T05:50:45.673Z,93.47
2023-02-18T05:53:16.126Z,92.90
2023-02-18T05:55:47.940Z,93.81
2023-02-18T05:58:17.245Z,93.47
2023-02-18T06:00:45.948Z,93.07
2023-02-18T06:03:15.140Z,93.90
2023-02-18T06:05:43.835Z,93.05
2023-02-18T06:08:12.677Z,93.43
2023-02-18T06:10:42.387Z,93.27
2023-02-18T06:13:12.834Z,93.26
2023-02-18T06:15:41.899Z,93.48
2023-02-18T06:18:10.683Z,93.52
2023-02-18T06:20:40.843Z,94.00
2023-02-18T06:23:11.598Z,94.06
2023-02-18T06:25:40.543Z,93.23
2023-02-18T06:28:09.223Z,93.22
2023-02-18T06:30:39.477Z,93.58
2023-02-18T06:33:08.454Z,93.52
2023-02-18T06:35:37.179Z,93.34
2023-02-18T06:38:06.087Z,93.67
2023-02-18T06:40:35.508Z,93.85
2023-02-18T06:43:04.389Z,93.88
2023-02-18T06:45:33.094Z,94.35
2023-02-18T06:48:03.624Z,94.11
2023-02-18T06:50:32.678Z,94.01
2023-02-18T06:53:01.440Z,93.46
2023-02-18T06:55:30.415Z,93.91
2023-02-18T06:57:59.343Z,93.99
2023-02-18T07:00:28.723Z,93.62
2023-02-18T07:02:58.033Z,93.59
2023-02-18T07:05:28.442Z,93.73
2023-02-18T07:07:57.136Z,93.68
2023-02-18T07:10:26.108Z,93.46
2023-02-18T07:12:54.887Z,93.24
2023-02-18T07:15:24.559Z,92.74
2023-02-18T07:17:53.883Z,92.92
2023-02-18T07:20:23.366Z,92.53
2023-02-18T07:22:53.921Z,92.36
2023-02-18T07:25:23.507Z,92.25
2023-02-18T07:27:52.722Z,92.14
2023-02-18T07:30:22.371Z,91.88
2023-02-18T07:32:51.925Z,91.29
2023-02-18T07:35:21.680Z,92.00
2023-02-18T07:37:52.425Z,91.61
2023-02-18T07:40:22.699Z,91.54
2023-02-18T07:42:52.776Z,91.31
2023-02-18T07:45:21.863Z,91.25
2023-02-18T07:47:50.644Z,91.05
2023-02-18T07:50:19.555Z,90.83
2023-02-18T07:52:48.207Z,90.36
2023-02-18T07:55:18.544Z,90.27
2023-02-18T07:57:57.177Z,89.73
2023-02-18T08:00:26.178Z,89.50
2023-02-18T08:02:54.765Z,89.73
2023-02-18T08:05:24.246Z,89.03
2023-02-18T08:07:52.965Z,88.85
2023-02-18T08:10:23.182Z,88.76
2023-02-18T08:12:52.051Z,88.88
2023-02-18T08:15:20.719Z,88.56
2023-02-18T08:17:49.513Z,88.60
2023-02-18T08:20:18.341Z,88.08
2023-02-18T08:22:47.112Z,87.79
2023-02-18T08:25:27.642Z,88.00
2023-02-18T08:28:00.079Z,87.79
2023-02-18T08:30:29.189Z,87.65
2023-02-18T08:32:58.021Z,87.41
2023-02-18T08:35:26.677Z,87.02
2023-02-18T08:37:56.184Z,86.61
2023-02-18T08:40:25.607Z,86.26
2023-02-18T08:42:54.366Z,86.16
2023-02-18T08:45:24.553Z,85.97
2023-02-18T08:48:18.806Z,85.72
2023-02-18T08:50:42.291Z,85.21
2023-02-18T08:53:10.880Z,85.10
2023-02-18T08:55:42.469Z,85.07
2023-02-18T08:58:11.761Z,85.14
2023-02-18T09:00:44.052Z,85.36
2023-02-18T09:03:15.326Z,85.15
2023-02-18T09:05:44.336Z,85.00
2023-02-18T09:08:12.984Z,85.07
2023-02-18T09:10:41.756Z,85.27
2023-02-18T09:13:10.554Z,85.28
2023-02-18T09:15:39.333Z,85.35
2023-02-18T09:18:09.382Z,85.53
2023-02-18T09:20:38.236Z,85.37
2023-02-18T09:23:07.009Z,85.28
2023-02-18T09:25:35.722Z,84.97
2023-02-18T09:28:04.481Z,84.99
2023-02-18T09:30:33.265Z,84.85
2023-02-18T09:33:02.031Z,84.72
2023-02-18T09:35:33.047Z,84.78
2023-02-18T09:38:03.247Z,84.77
2023-02-18T09:40:37.398Z,84.73
2023-02-18T09:43:07.929Z,84.72
2023-02-18T09:45:36.960Z,84.80
2023-02-18T09:48:06.882Z,84.75
2023-02-18T09:50:37.238Z,84.93
2023-02-18T09:53:06.497Z,84.80
2023-02-18T09:55:39.665Z,84.73
2023-02-18T09:58:15.576Z,84.80
2023-02-18T10:00:48.583Z,84.89
2023-02-18T10:03:20.526Z,84.88
2023-02-18T10:05:59.655Z,84.94
2023-02-18T10:08:31.131Z,85.06
2023-02-18T10:10:59.838Z,85.04
2023-02-18T10:13:32.192Z,84.97
2023-02-18T10:16:01.412Z,84.99
2023-02-18T10:18:32.691Z,84.84
2023-02-18T10:21:08.891Z,84.54
2023-02-18T10:23:40.468Z,84.21
2023-02-18T10:26:16.933Z,84.15
2023-02-18T10:28:46.738Z,84.19
2023-02-18T10:31:21.523Z,84.36
2023-02-18T10:33:58.548Z,84.37
2023-02-18T10:36:35.696Z,84.63
2023-02-18T10:39:33.195Z,84.43
2023-02-18T10:42:15.623Z,84.40
2023-02-18T10:44:57.152Z,84.36
2023-02-18T10:47:40.821Z,83.80
2023-02-18T10:50:14.347Z,82.87
2023-02-18T10:52:48.824Z,82.23
2023-02-18T10:55:19.810Z,81.92
2023-02-18T10:57:51.467Z,81.16
2023-02-18T11:00:24.263Z,81.00
2023-02-18T11:03:17.708Z,81.12
2023-02-18T11:05:47.318Z,81.06
2023-02-18T11:08:19.833Z,81.04
2023-02-18T11:10:51.331Z,81.26
2023-02-18T11:13:27.638Z,81.68
2023-02-18T11:16:00.136Z,82.66
2023-02-18T11:18:35.266Z,83.11
2023-02-18T11:21:06.631Z,83.73
2023-02-18T11:23:49.696Z,84.73
2023-02-18T11:26:24.848Z,85.20
2023-02-18T11:29:01.602Z,85.81
2023-02-18T11:31:43.152Z,86.79
2023-02-18T11:34:19.928Z,86.98
2023-02-18T11:36:50.624Z,87.27
2023-02-18T11:39:24.582Z,87.89
2023-02-18T11:41:59.377Z,88.00
2023-02-18T11:44:34.322Z,88.15
2023-02-18T11:47:05.022Z,88.45
2023-02-18T11:49:36.358Z,88.45
2023-02-18T11:52:14.049Z,88.48
2023-02-18T11:54:44.190Z,88.74
2023-02-18T11:57:15.885Z,88.67
2023-02-18T11:59:45.714Z,88.70
2023-02-18T12:02:33.208Z,89.21
2023-02-18T12:05:06.393Z,89.19
2023-02-18T12:07:46.436Z,89.33
2023-02-18T12:10:24.684Z,89.53
2023-02-18T12:13:02.644Z,89.83
2023-02-18T12:15:47.170Z,89.98
2023-02-18T12:18:42.854Z,90.41
2023-02-18T12:21:31.748Z,90.87
2023-02-18T12:24:12.447Z,91.17
2023-02-18T12:26:55.842Z,91.59
2023-02-18T12:29:44.166Z,91.98
2023-02-18T12:32:34.510Z,92.51
2023-02-18T12:35:36.048Z,92.88
2023-02-18T12:38:23.181Z,93.09
2023-02-18T12:41:11.205Z,93.45
2023-02-18T12:43:55.127Z,93.54
2023-02-18T12:46:41.627Z,94.18
2023-02-18T12:49:27.966Z,94.00
2023-02-18T12:52:07.819Z,94.45
2023-02-18T12:54:53.340Z,94.43
2023-02-18T12:57:45.309Z,94.84
2023-02-18T13:00:51.856Z,94.79
2023-02-18T13:03:42.421Z,95.35
2023-02-18T13:06:24.585Z,95.76
2023-02-18T13:09:04.810Z,95.30
2023-02-18T13:11:47.035Z,95.88
2023-02-18T13:14:21.984Z,95.93
2023-02-18T13:16:56.556Z,96.16
2023-02-18T13:19:28.948Z,96.12
2023-02-18T13:22:01.197Z,96.41
2023-02-18T13:24:35.443Z,96.26
2023-02-18T13:27:16.300Z,96.28
2023-02-18T13:29:52.750Z,96.13
2023-02-18T13:32:31.331Z,96.32
2023-02-18T13:35:04.974Z,96.10
2023-02-18T13:37:40.524Z,96.02
2023-02-18T13:40:15.941Z,96.14
2023-02-18T13:42:44.807Z,96.04
2023-02-18T13:45:35.036Z,96.31
2023-02-18T13:48:24.937Z,96.05
2023-02-18T13:50:55.835Z,95.93
2023-02-18T13:53:26.917Z,96.20
2023-02-18T13:56:02.122Z,96.02
2023-02-18T13:58:40.239Z,95.88
2023-02-18T14:01:21.304Z,95.69
2023-02-18T14:03:57.766Z,95.77
2023-02-18T14:06:29.879Z,95.59
2023-02-18T14:09:26.374Z,95.77
2023-02-18T14:11:58.041Z,95.30
2023-02-18T14:14:44.698Z,95.25
2023-02-18T14:17:36.918Z,95.33
2023-02-18T14:20:26.458Z,94.94
2023-02-18T14:22:56.399Z,94.96
2023-02-18T14:25:36.854Z,94.70
2023-02-18T14:28:34.518Z,94.59
2023-02-18T14:31:03.938Z,94.28
2023-02-18T14:33:36.473Z,94.50
2023-02-18T14:36:19.530Z,94.21
2023-02-18T14:38:57.564Z,94.41
2023-02-18T14:41:47.139Z,94.44
2023-02-18T14:44:25.717Z,94.32
2023-02-18T14:47:11.203Z,94.29
2023-02-18T14:49:44.717Z,94.16
2023-02-18T14:52:25.039Z,94.30
2023-02-18T14:54:55.582Z,94.23
2023-02-18T14:57:38.759Z,94.21
2023-02-18T15:00:09.741Z,94.25
2023-02-18T15:02:40.226Z,94.27
2023-02-18T15:05:18.104Z,94.00
2023-02-18T15:08:00.904Z,93.88
2023-02-18T15:10:39.326Z,93.48
2023-02-18T15:13:16.224Z,92.90
2023-02-18T15:15:46.797Z,91.66
2023-02-18T15:18:23.243Z,90.14
2023-02-18T15:20:52.825Z,88.35
2023-02-18T15:23:21.429Z,86.56
2023-02-18T15:25:55.642Z,85.19
2023-02-18T15:28:29.249Z,83.93
2023-02-18T15:30:59.666Z,82.57
2023-02-18T15:33:29.167Z,81.83
2023-02-18T15:36:03.238Z,80.80
2023-02-18T15:38:32.985Z,80.03
2023-02-18T15:41:04.160Z,79.65
2023-02-18T15:43:35.498Z,78.84
2023-02-18T15:46:15.273Z,78.47
2023-02-18T15:48:48.710Z,78.10
2023-02-18T15:51:23.435Z,77.94
2023-02-18T15:53:55.485Z,77.86
2023-02-18T15:56:32.518Z,77.81
2023-02-18T15:59:17.380Z,78.12
2023-02-18T16:01:51.337Z,77.94
2023-02-18T16:04:21.603Z,77.74
2023-02-18T16:06:52.551Z,77.78
2023-02-18T16:09:24.892Z,77.69
2023-02-18T16:11:59.727Z,77.67
2023-02-18T16:14:33.380Z,77.93
2023-02-18T16:17:17.087Z,78.21
2023-02-18T16:20:03.983Z,78.09
2023-02-18T16:22:39.075Z,78.16
2023-02-18T16:25:18.176Z,78.13
2023-02-18T16:27:55.529Z,78.28
2023-02-18T16:30:27.100Z,78.11
2023-02-18T16:32:56.209Z,78.27
2023-02-18T16:35:25.519Z,78.05
2023-02-18T16:37:55.407Z,78.07
2023-02-18T16:40:28.155Z,77.72
2023-02-18T16:43:01.095Z,77.29
2023-02-18T16:45:38.288Z,77.29
2023-02-18T16:48:07.799Z,76.99
2023-02-18T16:50:36.692Z,76.77
2023-02-18T16:53:05.447Z,76.50
2023-02-18T16:55:34.296Z,76.45
2023-02-18T16:58:04.433Z,76.11
2023-02-18T17:00:33.654Z,75.71
2023-02-18T17:03:03.002Z,75.85
2023-02-18T17:05:35.693Z,75.85
2023-02-18T17:08:18.952Z,75.81
2023-02-18T17:10:49.637Z,76.10
2023-02-18T17:13:21.634Z,76.14
2023-02-18T17:15:53.682Z,76.20
2023-02-18T17:18:24.063Z,76.39
2023-02-18T17:20:54.189Z,76.75
2023-02-18T17:23:25.384Z,76.79
2023-02-18T17:25:54.653Z,76.48
2023-02-18T17:28:24.872Z,76.48
2023-02-18T17:30:58.316Z,76.56
2023-02-18T17:33:27.514Z,75.99
2023-02-18T17:35:56.108Z,75.72
2023-02-18T17:38:25.076Z,75.42
2023-02-18T17:40:53.895Z,75.11
2023-02-18T17:43:25.689Z,75.37
2023-02-18T17:45:57.688Z,75.50
2023-02-18T17:48:26.785Z,75.67
2023-02-18T17:50:55.764Z,75.65
2023-02-18T17:53:25.169Z,75.97
2023-02-18T17:55:54.348Z,75.81
2023-02-18T17:58:23.180Z,75.33
2023-02-18T18:00:54.200Z,74.94
2023-02-18T18:03:24.774Z,74.33
2023-02-18T18:05:54.780Z,74.08
2023-02-18T18:08:23.486Z,74.01
2023-02-18T18:10:56.070Z,74.15
2023-02-18T18:13:27.162Z,74.02
2023-02-18T18:15:58.058Z,74.12
2023-02-18T18:18:29.362Z,73.99
2023-02-18T18:21:01.426Z,73.30
2023-02-18T18:23:30.316Z,73.86
2023-02-18T18:26:00.271Z,73.75
2023-02-18T18:28:33.116Z,73.57
2023-02-18T18:31:02.923Z,73.30
2023-02-18T18:33:35.998Z,73.01
2023-02-18T18:36:05.162Z,72.51
2023-02-18T18:38:34.218Z,72.11
2023-02-18T18:41:03.016Z,71.71
2023-02-18T18:43:33.488Z,71.37
2023-02-18T18:46:02.541Z,71.16
2023-02-18T18:48:32.731Z,70.87
2023-02-18T18:51:02.622Z,70.19
2023-02-18T18:53:33.106Z,70.32
2023-02-18T18:56:04.128Z,69.71
2023-02-18T18:58:33.213Z,69.91
2023-02-18T19:01:07.353Z,69.98
2023-02-18T19:03:38.938Z,69.90
2023-02-18T19:06:07.729Z,69.82
2023-02-18T19:08:36.403Z,69.94
2023-02-18T19:11:05.491Z,69.91
2023-02-18T19:13:36.247Z,69.89
2023-02-18T19:16:09.822Z,70.00
2023-02-18T19:18:40.216Z,69.94
2023-02-18T19:21:09.600Z,69.75
2023-02-18T19:23:38.451Z,69.79
2023-02-18T19:26:07.377Z,69.97
2023-02-18T19:28:36.188Z,70.24
2023-02-18T19:31:09.885Z,70.37
2023-02-18T19:33:41.091Z,70.48
2023-02-18T19:36:11.646Z,70.78
2023-02-18T19:38:40.484Z,70.49
2023-02-18T19:41:12.511Z,70.80
2023-02-18T19:43:42.008Z,70.69
2023-02-18T19:46:11.827Z,70.68
2023-02-18T19:48:42.702Z,70.77
2023-02-18T19:51:11.846Z,71.09
2023-02-18T19:53:40.986Z,71.03
2023-02-18T19:56:09.669Z,71.05
2023-02-18T19:58:40.362Z,70.84
2023-02-18T20:01:13.563Z,71.17
2023-02-18T20:03:44.764Z,71.19
2023-02-18T20:06:17.561Z,71.26
2023-02-18T20:08:46.895Z,71.05
2023-02-18T20:11:15.622Z,70.89
2023-02-18T20:13:45.116Z,70.63
2023-02-18T20:16:13.894Z,70.28
2023-02-18T20:18:44.152Z,70.20
2023-02-18T20:21:13.244Z,69.86
2023-02-18T20:23:42.504Z,69.89
2023-02-18T20:26:12.216Z,69.77
2023-02-18T20:28:41.100Z,69.69
2023-02-18T20:31:12.781Z,69.65
2023-02-18T20:33:44.646Z,69.61
2023-02-18T20:36:15.632Z,69.67
2023-02-18T20:38:44.680Z,69.73
2023-02-18T20:41:17.632Z,69.47
2023-02-18T20:43:46.772Z,69.67
2023-02-18T20:46:17.218Z,69.53
2023-02-18T20:48:48.270Z,69.35
2023-02-18T20:51:19.428Z,69.20
2023-02-18T20:53:49.083Z,69.11
2023-02-18T20:56:20.982Z,69.15
2023-02-18T20:58:49.954Z,69.33
2023-02-18T21:01:20.472Z,68.95
2023-02-18T21:03:51.266Z,69.00
2023-02-18T21:06:22.913Z,68.83
2023-02-18T21:08:54.955Z,68.55
2023-02-18T21:11:26.443Z,68.33
2023-02-18T21:13:57.268Z,68.40
2023-02-18T21:16:28.742Z,68.22
2023-02-18T21:18:58.897Z,68.33
2023-02-18T21:21:28.436Z,67.89
2023-02-18T21:23:57.271Z,68.00
2023-02-18T21:26:27.829Z,68.07
2023-02-18T21:28:58.891Z,68.00
2023-02-18T21:31:30.945Z,68.08
2023-02-18T21:34:01.491Z,68.04
2023-02-18T21:36:32.990Z,68.22
2023-02-18T21:39:03.613Z,67.73
2023-02-18T21:41:34.328Z,67.75
2023-02-18T21:44:03.593Z,67.62
2023-02-18T21:46:34.363Z,67.66
2023-02-18T21:49:09.996Z,67.64
2023-02-18T21:51:52.798Z,67.73
2023-02-18T21:54:23.980Z,67.33
2023-02-18T21:56:53.375Z,67.08
2023-02-18T21:59:23.683Z,67.46
2023-02-18T22:01:52.455Z,67.87
2023-02-18T22:04:23.054Z,68.23
2023-02-18T22:06:52.249Z,68.29
2023-02-18T22:09:21.033Z,68.42
2023-02-18T22:11:49.877Z,68.66
2023-02-18T22:14:18.995Z,68.31
2023-02-18T22:16:48.269Z,68.25
2023-02-18T22:19:16.999Z,68.63
2023-02-18T22:21:47.480Z,68.59
2023-02-18T22:24:17.962Z,68.61
2023-02-18T22:26:48.783Z,69.15
2023-02-18T22:29:19.672Z,69.43
2023-02-18T22:31:49.769Z,69.47
2023-02-18T22:34:18.737Z,69.56
2023-02-18T22:36:49.141Z,69.13
2023-02-18T22:39:18.357Z,68.81
2023-02-18T22:41:47.071Z,69.14
2023-02-18T22:44:18.556Z,69.02
2023-02-18T22:46:47.573Z,68.68
2023-02-18T22:49:16.351Z,68.67
2023-02-18T22:51:46.332Z,68.28
2023-02-18T22:54:18.602Z,68.21
2023-02-18T22:56:49.880Z,67.64
2023-02-18T22:59:20.006Z,67.58
2023-02-18T23:01:50.667Z,67.58
2023-02-18T23:04:20.925Z,68.10
2023-02-18T23:06:50.782Z,68.34
2023-02-18T23:09:22.981Z,68.71
2023-02-18T23:11:52.902Z,68.49
2023-02-18T23:14:22.719Z,67.87
2023-02-18T23:17:04.502Z,68.29
2023-02-18T23:19:34.202Z,67.94
2023-02-18T23:22:02.671Z,67.96
2023-02-18T23:24:35.073Z,68.19
2023-02-18T23:27:04.497Z,69.21
2023-02-18T23:29:33.695Z,68.92
2023-02-18T23:32:02.966Z,69.01
2023-02-18T23:34:31.774Z,68.46
2023-02-18T23:37:00.678Z,67.87
2023-02-18T23:39:30.125Z,67.65
2023-02-18T23:42:00.412Z,66.82
2023-02-18T23:44:29.717Z,67.17
2023-02-18T23:46:58.400Z,67.16
2023-02-18T23:49:29.070Z,67.18
2023-02-18T23:51:58.850Z,67.54
2023-02-18T23:54:27.716Z,68.14
2023-02-18T23:56:56.473Z,68.38
2023-02-18T23:59:26.695Z,68.61
